Cape Lambert — V7TC9 — position and weather

sailwx.info

Track history (hours):
 
Tides and Currents Weather Stations Pressure Air Temp Water Temp Dewpoint Dewpoint Depression Visibility Wind Speed Wind Dir Waves Ship Positions

Cape Lambert

Last reported at 2016-Jul-28 00:33 UTC. Time now 2016-Jul-28 06:41 UTC.
Position N 36°06' W 005°09'.

Length 290 m; draft 15.6 m.

Type: Cargo ship. MMSI: 538003781.

Date/timePositionNaut miles runAvg speedWind from/ knotsBaromVisibWave heightAir tempDewpointWater temp
2016-Jul-28 00:33N 36°06' W 005°09'1110.7
2016-Jul-27 23:33N 36°06' W 005°22'2 1.7
2016-Jul-27 22:31N 36°07' W 005°22'0 0.1
2016-Jul-27 21:31N 36°07' W 005°22'0 0.0
2016-Jul-27 20:31N 36°07' W 005°22'0 0.1
2016-Jul-27 19:32N 36°07' W 005°22'0 0.2
2016-Jul-27 18:34N 36°08' W 005°22'0 0.1
2016-Jul-27 17:33N 36°08' W 005°22'0 0.1
2016-Jul-27 16:34N 36°08' W 005°22'0 0.1
2016-Jul-27 15:33N 36°08' W 005°22'0 0.1
2016-Jul-27 14:34N 36°08' W 005°22'0 0.1
2016-Jul-27 13:33N 36°08' W 005°22'0 0.1
2016-Jul-27 12:34N 36°07' W 005°22'1 1.0
2016-Jul-27 11:34N 36°06' W 005°22'5 5.0
2016-Jul-27 10:33N 36°05' W 005°16'5 4.9
2016-Jul-27 09:33N 36°06' W 005°10'3 2.5
2016-Jul-27 08:12N 36°03' W 005°13'5 8.2
2016-Jul-27 07:33N 35°60' W 005°18'2210.8
2016-Jul-27 05:32N 35°54' W 005°44'5611.2
2016-Jul-27 00:34N 35°54' W 006°53'1211.6
2016-Jul-26 23:33N 35°54' W 007°07'1212.1
2016-Jul-26 22:34N 35°54' W 007°22'1211.7
2016-Jul-26 21:33N 35°54' W 007°37'1611.5
2016-Jul-26 20:11N 35°54' W 007°56'911.5
2016-Jul-26 19:25N 35°54' W 008°07'1011.8
2016-Jul-26 18:33N 35°54' W 008°20'1313.0
2016-Jul-26 17:33N 35°54' W 008°36'1312.7
2016-Jul-26 16:33N 35°54' W 008°51'1312.8
2016-Jul-26 15:33N 35°54' W 009°07'1212.5
2016-Jul-26 14:34N 35°53' W 009°22'1212.2
2016-Jul-26 13:33N 35°52' W 009°38'1110.7
2016-Jul-26 12:33N 35°52' W 009°51'1110.9
2016-Jul-26 11:33N 35°51' W 010°04'1110.8
2016-Jul-26 10:34N 35°50' W 010°17'1110.8
2016-Jul-26 09:33N 35°50' W 010°31'1110.9
2016-Jul-26 08:33N 35°49' W 010°44'1110.9
2016-Jul-26 07:33N 35°48' W 010°58'1110.8
2016-Jul-26 06:33N 35°48' W 011°11'1110.7
2016-Jul-26 05:34N 35°47' W 011°24'1110.8
2016-Jul-26 04:29N 35°46' W 011°38'1011.0
2016-Jul-26 03:33N 35°46' W 011°51'1110.8
2016-Jul-26 02:31N 35°45' W 012°05'1010.7
2016-Jul-26 01:33N 35°45' W 012°17'1110.8
2016-Jul-26 00:33N 35°44' W 012°31'1110.8
2016-Jul-25 23:33N 35°43' W 012°44'1110.4
2016-Jul-25 22:29N 35°43' W 012°57'1010.5
2016-Jul-25 21:33N 35°42' W 013°10'1510.5
2016-Jul-25 20:08N 35°41' W 013°28'710.4
2016-Jul-25 19:27N 35°41' W 013°37'910.3
2016-Jul-25 18:33N 35°40' W 013°48'50310.3
2016-Jul-23 17:31N 34°35' W 023°58'2310.8
2016-Jul-23 15:23N 34°31' W 024°25'1211.0
2016-Jul-23 14:19N 34°29' W 024°39'5210.9
2016-Jul-23 09:33N 34°18' W 025°41'1110.6
2016-Jul-23 08:32N 34°16' W 025°53'  
Track history (hours):
 
Tides and Currents Weather Stations Pressure Air Temp Water Temp Dewpoint Dewpoint Depression Visibility Wind Speed Wind Dir Waves Ship Positions

Cape Lambert

Last reported at 2016-Jul-28 00:33 UTC. Time now 2016-Jul-28 06:41 UTC.
Position N 36°06' W 005°09'.

Length 290 m; draft 15.6 m.

Type: Cargo ship. MMSI: 538003781.

Date/timePositionNaut miles runAvg speedWind from/ knotsBaromVisibWave heightAir tempDewpointWater temp
2016-Jul-28 00:33N 36°06' W 005°09'1110.7
2016-Jul-27 23:33N 36°06' W 005°22'2 1.7
2016-Jul-27 22:31N 36°07' W 005°22'0 0.1
2016-Jul-27 21:31N 36°07' W 005°22'0 0.0
2016-Jul-27 20:31N 36°07' W 005°22'0 0.1
2016-Jul-27 19:32N 36°07' W 005°22'0 0.2
2016-Jul-27 18:34N 36°08' W 005°22'0 0.1
2016-Jul-27 17:33N 36°08' W 005°22'0 0.1
2016-Jul-27 16:34N 36°08' W 005°22'0 0.1
2016-Jul-27 15:33N 36°08' W 005°22'0 0.1
2016-Jul-27 14:34N 36°08' W 005°22'0 0.1
2016-Jul-27 13:33N 36°08' W 005°22'0 0.1
2016-Jul-27 12:34N 36°07' W 005°22'1 1.0
2016-Jul-27 11:34N 36°06' W 005°22'5 5.0
2016-Jul-27 10:33N 36°05' W 005°16'5 4.9
2016-Jul-27 09:33N 36°06' W 005°10'3 2.5
2016-Jul-27 08:12N 36°03' W 005°13'5 8.2
2016-Jul-27 07:33N 35°60' W 005°18'2210.8
2016-Jul-27 05:32N 35°54' W 005°44'5611.2
2016-Jul-27 00:34N 35°54' W 006°53'1211.6
2016-Jul-26 23:33N 35°54' W 007°07'1212.1
2016-Jul-26 22:34N 35°54' W 007°22'1211.7
2016-Jul-26 21:33N 35°54' W 007°37'1611.5
2016-Jul-26 20:11N 35°54' W 007°56'911.5
2016-Jul-26 19:25N 35°54' W 008°07'1011.8
2016-Jul-26 18:33N 35°54' W 008°20'1313.0
2016-Jul-26 17:33N 35°54' W 008°36'1312.7
2016-Jul-26 16:33N 35°54' W 008°51'1312.8
2016-Jul-26 15:33N 35°54' W 009°07'1212.5
2016-Jul-26 14:34N 35°53' W 009°22'1212.2
2016-Jul-26 13:33N 35°52' W 009°38'1110.7
2016-Jul-26 12:33N 35°52' W 009°51'1110.9
2016-Jul-26 11:33N 35°51' W 010°04'1110.8
2016-Jul-26 10:34N 35°50' W 010°17'1110.8
2016-Jul-26 09:33N 35°50' W 010°31'1110.9
2016-Jul-26 08:33N 35°49' W 010°44'1110.9
2016-Jul-26 07:33N 35°48' W 010°58'1110.8
2016-Jul-26 06:33N 35°48' W 011°11'1110.7
2016-Jul-26 05:34N 35°47' W 011°24'1110.8
2016-Jul-26 04:29N 35°46' W 011°38'1011.0
2016-Jul-26 03:33N 35°46' W 011°51'1110.8
2016-Jul-26 02:31N 35°45' W 012°05'1010.7
2016-Jul-26 01:33N 35°45' W 012°17'1110.8
2016-Jul-26 00:33N 35°44' W 012°31'1110.8
2016-Jul-25 23:33N 35°43' W 012°44'1110.4
2016-Jul-25 22:29N 35°43' W 012°57'1010.5
2016-Jul-25 21:33N 35°42' W 013°10'1510.5
2016-Jul-25 20:08N 35°41' W 013°28'710.4
2016-Jul-25 19:27N 35°41' W 013°37'910.3
2016-Jul-25 18:33N 35°40' W 013°48'50310.3
2016-Jul-23 17:31N 34°35' W 023°58'2310.8
2016-Jul-23 15:23N 34°31' W 024°25'1211.0
2016-Jul-23 14:19N 34°29' W 024°39'5210.9
2016-Jul-23 09:33N 34°18' W 025°41'1110.6
2016-Jul-23 08:32N 34°16' W 025°53'  

Dump ship's entire track history